Lokaal brand risico:
CBI


Regionaal brand risico: Meer informatie


bezoek onze andere website:

Weerstation
Sluispark-Leuven



metar rapporten vliegvelden

   
EBBR - Leuven
gewijzigd: 23-10-2017 04:20
grotendeels bewolkt  
grotendeels bewolkt  
   wind: wzw 18.5 km/h
wind: wzw 18.5 km/h
temperatuur: 10°C
voelt als: 8°C
dauwpunt: 7°C
vochtigheid: 82%
barometer: 1017 hPa
bewolking: grotendeels bewolkt
zicht: meer dan 10 km
bewolking: grotendeels bewolkt 4000 ft
EBBR 230220Z 24010KT 9999 BKN040 10/07 Q1017 NOSIG
EBAW - Antwerp
gewijzigd: 23-10-2017 04:20
bewolking  
bewolking  
   wind: wzw 14.8 km/h
wind: wzw 14.8 km/h
temperatuur: 11°C
dauwpunt: 7°C
vochtigheid: 77%
barometer: 1017 hPa
bewolking: bewolking
zicht: meer dan 10 km
bewolking: licht bewolkt 3500 ft,
bewolking 4400 ft
EBAW 230220Z AUTO 24008KT 9999 // FEW035/// OVC044/// 11/07 Q1017
EBLG - Li├Ęge
gewijzigd: 23-10-2017 04:20
grotendeels bewolkt  
grotendeels bewolkt  
   wind: wzw 20.4 km/h
wind: wzw 20.4 km/h
temperatuur: 9°C
voelt als: 6°C
dauwpunt: 5°C
vochtigheid: 76%
barometer: 1018 hPa
bewolking: grotendeels bewolkt
zicht: meer dan 10 km
bewolking: gedeeltelijk bewolkt 2800 ft,
grotendeels bewolkt 4800 ft
EBLG 230220Z 24011KT 9999 SCT028 BKN048 09/05 Q1018 NOSIG
EBOS - Oostende
gewijzigd: 23-10-2017 04:20
grotendeels bewolkt  
grotendeels bewolkt  
   wind: westen 29.6 km/h
wind: westen 29.6 km/h
temperatuur: 12°C
dauwpunt: 8°C
vochtigheid: 77%
barometer: 1018 hPa
bewolking: grotendeels bewolkt
zicht: meer dan 10 km
bewolking: licht bewolkt 2200 ft,
grotendeels bewolkt 4600 ft
EBOS 230220Z 27016KT 9999 FEW022 BKN046 12/08 Q1018 NOSIG
EBCV - Mons/Bergen
gewijzigd: 23-10-2017 03:55
licht bewolkt  
licht bewolkt  
   wind: wzw 14.8 km/h
wind: wzw 14.8 km/h
temperatuur: 8°C
voelt als: 6°C
dauwpunt: 7°C
vochtigheid: 93%
barometer: 1019 hPa
bewolking: licht bewolkt
zicht: meer dan 10 km
bewolking: licht bewolkt 4500 ft
EBCV 230155Z AUTO 24008KT 9999 FEW045/// 08/07 Q1019 BLU
EHBK - Maastricht
gewijzigd: 23-10-2017 04:25
bewolking  
bewolking  
   wind: zw 18.5 km/h
wind: zw 18.5 km/h
temperatuur: 9°C
voelt als: 6°C
dauwpunt: 6°C
vochtigheid: 82%
barometer: 1017 hPa
bewolking: bewolking
zicht: meer dan 10 km
bewolking: grotendeels bewolkt 3800 ft,
bewolking 4200 ft
EHBK 230225Z AUTO 23010KT 9999 BKN038 OVC042 09/06 Q1017
ELLX - Luxemburg
gewijzigd: 23-10-2017 04:20
grotendeels bewolkt  
grotendeels bewolkt  
   wind: wzw 14.8 km/h
wind: wzw 14.8 km/h
temperatuur: 7°C
voelt als: 4°C
dauwpunt: 6°C
vochtigheid: 93%
barometer: 1019 hPa
bewolking: grotendeels bewolkt
zicht: meer dan 10 km
bewolking: gedeeltelijk bewolkt 500 ft,
grotendeels bewolkt 600 ft,
grotendeels bewolkt 4800 ft
ELLX 230220Z AUTO 25008KT 9999 SCT005/// BKN006/// BKN048/// 07/06 Q1019 NOSIG
  

script ontwikkeld door  Saratoga-weather.org aangepast voor de template door  Weerstation Leuven

u vindt ons ook hier:

WeatherCloud

Weather Underground

benelux weer netwerk

AWEKAS

WeatherlinkIP

Het Weer Aktueel

European Weather Network

apparatuur in gebruik:

weerstation
Davis VP2 weatherstation

weerprogramma
Meteobridge

weercomputer
Asus WL -330N3G

webleverancier
Robohost

Davis VP2 weatherstation

Meteobridge

Asus WL -330N3G

Robohost